createdAt,value
2022-10-18T00:00:02.186Z,7.55
2022-10-18T00:02:28.784Z,7.07
2022-10-18T00:04:55.503Z,7.70
2022-10-18T00:07:22.001Z,7.32
2022-10-18T00:09:48.512Z,7.53
2022-10-18T00:12:15.030Z,7.13
2022-10-18T00:14:41.656Z,7.20
2022-10-18T00:17:08.318Z,7.65
2022-10-18T00:19:34.882Z,7.28
2022-10-18T00:22:01.416Z,6.85
2022-10-18T00:24:27.987Z,7.13
2022-10-18T00:26:54.558Z,6.78
2022-10-18T00:29:21.063Z,7.03
2022-10-18T00:31:47.576Z,7.32
2022-10-18T00:34:15.975Z,7.18
2022-10-18T00:36:43.520Z,6.95
2022-10-18T00:39:16.382Z,6.53
2022-10-18T00:41:43.414Z,7.53
2022-10-18T00:44:13.154Z,7.32
2022-10-18T00:46:43.150Z,7.05
2022-10-18T00:49:13.629Z,7.00
2022-10-18T00:51:46.422Z,6.70
2022-10-18T00:54:14.886Z,7.35
2022-10-18T00:56:44.185Z,7.88
2022-10-18T00:59:13.574Z,7.00
2022-10-18T01:01:40.140Z,7.72
2022-10-18T01:04:06.747Z,6.68
2022-10-18T01:06:40.929Z,6.70
2022-10-18T01:09:18.749Z,6.28
2022-10-18T01:12:23.534Z,6.70
2022-10-18T01:15:16.655Z,7.25
2022-10-18T01:17:59.001Z,6.68
2022-10-18T01:20:34.353Z,7.50
2022-10-18T01:23:11.444Z,7.22
2022-10-18T01:26:16.247Z,7.07
2022-10-18T01:29:13.706Z,6.53
2022-10-18T01:31:47.850Z,6.93
2022-10-18T01:34:17.773Z,6.68
2022-10-18T01:36:56.132Z,7.22
2022-10-18T01:39:33.578Z,6.35
2022-10-18T01:42:02.795Z,7.15
2022-10-18T01:44:32.737Z,6.72
2022-10-18T01:47:00.313Z,7.38
2022-10-18T01:49:27.437Z,7.03
2022-10-18T01:51:54.168Z,7.32
2022-10-18T01:54:29.321Z,7.70
2022-10-18T01:59:36.781Z,6.65
2022-10-18T02:02:18.581Z,6.22
2022-10-18T02:05:01.262Z,7.05
2022-10-18T02:07:51.954Z,6.80
2022-10-18T02:11:02.826Z,7.57
2022-10-18T02:13:35.228Z,6.90
2022-10-18T02:16:07.668Z,7.10
2022-10-18T02:18:39.533Z,6.90
2022-10-18T02:21:08.309Z,6.35
2022-10-18T02:23:35.900Z,7.00
2022-10-18T02:26:02.512Z,7.03
2022-10-18T02:28:29.254Z,7.75
2022-10-18T02:31:17.821Z,7.10
2022-10-18T02:34:00.592Z,7.32
2022-10-18T02:36:32.074Z,7.13
2022-10-18T02:39:03.207Z,7.18
2022-10-18T02:41:31.545Z,6.43
2022-10-18T02:43:58.606Z,7.22
2022-10-18T02:48:56.887Z,6.95
2022-10-18T02:51:24.723Z,7.63
2022-10-18T02:53:51.326Z,6.45
2022-10-18T02:56:17.990Z,7.53
2022-10-18T02:58:44.580Z,7.00
2022-10-18T03:01:11.162Z,6.82
2022-10-18T03:03:37.709Z,7.35
2022-10-18T03:06:04.358Z,7.22
2022-10-18T03:08:30.910Z,7.50
2022-10-18T03:10:57.475Z,7.82
2022-10-18T03:13:24.043Z,7.05
2022-10-18T03:15:50.550Z,7.35
2022-10-18T03:18:17.068Z,7.43
2022-10-18T03:20:43.565Z,6.53
2022-10-18T03:23:10.402Z,6.63
2022-10-18T03:25:36.920Z,7.45
2022-10-18T03:28:03.542Z,7.10
2022-10-18T03:30:30.260Z,7.32
2022-10-18T03:32:56.863Z,7.72
2022-10-18T03:35:23.517Z,7.45
2022-10-18T03:37:50.421Z,6.78
2022-10-18T03:40:17.199Z,6.95
2022-10-18T03:42:43.739Z,7.13
2022-10-18T03:45:10.384Z,7.60
2022-10-18T03:47:36.866Z,7.80
2022-10-18T03:50:03.774Z,8.13
2022-10-18T03:52:30.612Z,8.52
2022-10-18T03:54:57.451Z,8.25
2022-10-18T03:57:23.997Z,8.82
2022-10-18T03:59:50.594Z,9.30
2022-10-18T04:02:17.241Z,9.60
2022-10-18T04:04:43.949Z,9.95
2022-10-18T04:07:10.505Z,10.15
2022-10-18T04:09:37.029Z,11.43
2022-10-18T04:12:03.695Z,10.25
2022-10-18T04:14:30.291Z,7.90
2022-10-18T04:16:56.847Z,9.10
2022-10-18T04:19:23.409Z,9.80
2022-10-18T04:21:50.038Z,8.85
2022-10-18T04:24:17.826Z,7.30
2022-10-18T04:26:44.519Z,5.57
2022-10-18T04:29:11.154Z,5.43
2022-10-18T04:31:37.753Z,4.50
2022-10-18T04:34:04.390Z,4.20
2022-10-18T04:36:31.445Z,3.65
2022-10-18T04:38:57.953Z,3.28
2022-10-18T04:41:24.661Z,3.25
2022-10-18T04:43:51.216Z,2.60
2022-10-18T04:46:17.822Z,3.08
2022-10-18T04:48:44.362Z,2.70
2022-10-18T04:51:10.957Z,3.38
2022-10-18T04:53:37.602Z,3.90
2022-10-18T04:56:04.248Z,3.92
2022-10-18T04:58:30.743Z,3.67
2022-10-18T05:00:57.286Z,3.50
2022-10-18T05:03:23.827Z,3.80
2022-10-18T05:06:01.427Z,3.53
2022-10-18T05:08:29.183Z,4.65
2022-10-18T05:10:55.711Z,4.18
2022-10-18T05:13:22.274Z,4.22
2022-10-18T05:15:49.088Z,4.60
2022-10-18T05:18:15.668Z,4.38
2022-10-18T05:20:42.358Z,4.97
2022-10-18T05:23:10.733Z,4.78
2022-10-18T05:25:44.189Z,4.20
2022-10-18T05:28:34.649Z,4.10
2022-10-18T05:31:16.422Z,4.40
2022-10-18T05:33:43.102Z,5.07
2022-10-18T05:36:10.298Z,4.15
2022-10-18T05:38:45.185Z,4.70
2022-10-18T05:41:12.595Z,5.15
2022-10-18T05:43:40.110Z,5.03
2022-10-18T05:46:12.093Z,4.40
2022-10-18T05:48:40.432Z,4.20
2022-10-18T05:51:06.981Z,4.82
2022-10-18T05:53:37.753Z,5.05
2022-10-18T05:56:06.037Z,4.90
2022-10-18T05:58:33.238Z,4.97
2022-10-18T06:01:03.783Z,4.80
2022-10-18T06:03:30.722Z,5.43
2022-10-18T06:06:01.490Z,5.15
2022-10-18T06:08:28.202Z,5.90
2022-10-18T06:10:54.831Z,6.38
2022-10-18T06:13:21.461Z,6.00
2022-10-18T06:15:48.138Z,5.57
2022-10-18T06:18:14.776Z,5.75
2022-10-18T06:20:41.438Z,5.72
2022-10-18T06:23:07.968Z,6.05
2022-10-18T06:25:34.453Z,6.10
2022-10-18T06:28:00.934Z,6.65
2022-10-18T06:30:27.439Z,6.00
2022-10-18T06:32:53.937Z,5.47
2022-10-18T06:35:20.500Z,6.35
2022-10-18T06:37:47.032Z,8.10
2022-10-18T06:40:13.831Z,7.63
2022-10-18T06:42:40.547Z,6.35
2022-10-18T06:45:07.775Z,7.22
2022-10-18T06:47:34.337Z,6.07
2022-10-18T06:50:01.041Z,6.07
2022-10-18T06:52:27.613Z,6.25
2022-10-18T06:54:54.177Z,5.03
2022-10-18T06:57:21.459Z,6.32
2022-10-18T06:59:48.091Z,6.53
2022-10-18T07:02:17.114Z,5.65
2022-10-18T07:04:43.949Z,6.18
2022-10-18T07:07:10.573Z,6.55
2022-10-18T07:09:37.090Z,6.10
2022-10-18T07:12:03.853Z,5.95
2022-10-18T07:14:30.422Z,6.40
2022-10-18T07:16:59.542Z,7.68
2022-10-18T07:19:26.211Z,7.20
2022-10-18T07:21:52.741Z,6.63
2022-10-18T07:24:19.271Z,7.25
2022-10-18T07:26:45.768Z,8.00
2022-10-18T07:29:12.993Z,6.78
2022-10-18T07:31:40.693Z,7.60
2022-10-18T07:34:08.931Z,6.32
2022-10-18T07:36:35.663Z,6.70
2022-10-18T07:39:02.902Z,6.63
2022-10-18T07:41:31.691Z,7.10
2022-10-18T07:43:58.217Z,6.22
2022-10-18T07:46:24.846Z,7.18
2022-10-18T07:48:51.842Z,6.22
2022-10-18T07:51:20.343Z,6.78
2022-10-18T07:53:47.009Z,6.75
2022-10-18T07:56:16.399Z,7.97
2022-10-18T07:58:44.350Z,8.55
2022-10-18T08:01:11.543Z,8.00
2022-10-18T08:03:38.878Z,8.20
2022-10-18T08:06:08.865Z,8.25
2022-10-18T08:08:36.797Z,7.95
2022-10-18T08:11:05.676Z,7.70
2022-10-18T08:13:32.626Z,6.88
2022-10-18T08:16:01.306Z,6.20
2022-10-18T08:18:28.259Z,5.70
2022-10-18T08:20:55.017Z,5.00
2022-10-18T08:23:21.505Z,4.47
2022-10-18T08:25:48.045Z,3.88
2022-10-18T08:28:14.622Z,4.70
2022-10-18T08:30:41.107Z,4.10
2022-10-18T08:33:08.202Z,4.10
2022-10-18T08:35:35.022Z,3.30
2022-10-18T08:38:01.775Z,2.70
2022-10-18T08:40:28.763Z,3.85
2022-10-18T08:43:12.046Z,4.28
2022-10-18T08:45:43.117Z,3.88
2022-10-18T08:48:22.020Z,3.75
2022-10-18T08:50:50.758Z,3.50
2022-10-18T08:53:17.288Z,3.50
2022-10-18T08:56:05.781Z,3.50
2022-10-18T08:58:33.484Z,3.80
2022-10-18T09:01:27.399Z,4.15
2022-10-18T09:04:40.618Z,4.97
2022-10-18T09:07:19.232Z,4.20
2022-10-18T09:10:01.447Z,4.32
2022-10-18T09:12:59.889Z,4.32
2022-10-18T09:15:57.301Z,4.68
2022-10-18T09:18:39.179Z,4.60
2022-10-18T09:21:31.725Z,4.93
2022-10-18T09:24:12.318Z,3.97
2022-10-18T09:26:44.945Z,4.68
2022-10-18T09:29:39.274Z,4.18
2022-10-18T09:32:45.478Z,4.65
2022-10-18T09:35:37.504Z,4.90
2022-10-18T09:38:09.914Z,4.95
2022-10-18T09:40:58.126Z,4.93
2022-10-18T09:43:53.775Z,5.68
2022-10-18T09:46:23.264Z,6.07
2022-10-18T09:49:00.237Z,5.47
2022-10-18T09:51:37.157Z,6.70
2022-10-18T09:54:51.767Z,6.13
2022-10-18T09:57:29.248Z,5.80
2022-10-18T09:59:57.733Z,6.30
2022-10-18T10:02:24.655Z,5.97
2022-10-18T10:04:54.027Z,5.57
2022-10-18T10:07:27.718Z,5.32
2022-10-18T10:09:57.832Z,5.53
2022-10-18T10:12:31.834Z,5.35
2022-10-18T10:15:13.465Z,4.88
2022-10-18T10:17:40.255Z,5.00
2022-10-18T10:20:20.963Z,5.20
2022-10-18T10:22:49.738Z,4.60
2022-10-18T10:25:32.513Z,4.25
2022-10-18T10:28:16.307Z,3.55
2022-10-18T10:30:42.894Z,3.60
2022-10-18T10:33:36.571Z,3.67
2022-10-18T10:36:07.012Z,3.28
2022-10-18T10:38:33.655Z,3.33
2022-10-18T10:41:00.513Z,3.25
2022-10-18T10:43:38.329Z,3.55
2022-10-18T10:46:08.420Z,3.60
2022-10-18T10:49:04.472Z,3.30
2022-10-18T10:51:40.909Z,3.75
2022-10-18T10:54:13.858Z,3.35
2022-10-18T10:56:57.853Z,3.92
2022-10-18T10:59:26.830Z,3.65
2022-10-18T11:02:26.203Z,4.03
2022-10-18T11:04:54.755Z,4.07
2022-10-18T11:07:35.635Z,4.43
2022-10-18T11:10:02.226Z,5.40
2022-10-18T11:12:34.504Z,5.40
2022-10-18T11:15:09.915Z,4.00
2022-10-18T11:20:29.333Z,1.60
2022-10-18T11:23:06.366Z,1.30
2022-10-18T11:25:44.993Z,1.25
2022-10-18T11:28:36.076Z,1.00
2022-10-18T11:31:32.167Z,1.30
2022-10-18T11:37:02.313Z,0.60
2022-10-18T11:39:45.705Z,0.65
2022-10-18T11:42:29.354Z,1.00
2022-10-18T11:45:11.103Z,0.40
2022-10-18T11:47:55.916Z,0.90
2022-10-18T11:51:15.131Z,0.73
2022-10-18T11:54:15.182Z,0.70
2022-10-18T11:57:07.674Z,0.70
2022-10-18T11:59:58.520Z,1.00
2022-10-18T12:02:41.287Z,0.90
2022-10-18T12:05:23.152Z,0.90
2022-10-18T12:07:59.044Z,0.95
2022-10-18T12:13:21.254Z,0.95
2022-10-18T12:15:49.648Z,0.60
2022-10-18T12:18:23.188Z,0.40
2022-10-18T12:20:53.290Z,0.28
2022-10-18T12:23:28.841Z,0.32
2022-10-18T12:26:00.586Z,0.60
2022-10-18T12:28:45.990Z,0.85
2022-10-18T12:33:59.437Z,0.40
2022-10-18T12:36:44.007Z,0.50
2022-10-18T12:39:21.548Z,0.45
2022-10-18T12:41:56.787Z,0.70
2022-10-18T12:44:34.691Z,0.40
2022-10-18T12:47:04.505Z,0.50
2022-10-18T12:49:39.115Z,0.35
2022-10-18T12:52:22.439Z,0.50
2022-10-18T12:55:18.243Z,0.50
2022-10-18T12:57:54.028Z,0.35
2022-10-18T13:00:29.641Z,0.50
2022-10-18T13:03:16.521Z,0.60
2022-10-18T13:05:57.735Z,0.45
2022-10-18T13:08:27.248Z,0.60
2022-10-18T13:11:09.281Z,0.60
2022-10-18T13:13:59.207Z,0.88
2022-10-18T13:16:54.204Z,0.43
2022-10-18T13:19:35.920Z,0.47
2022-10-18T13:22:08.733Z,0.40
2022-10-18T13:24:45.195Z,0.40
2022-10-18T13:27:34.874Z,0.57
2022-10-18T13:30:27.994Z,0.40
2022-10-18T13:33:30.455Z,0.50
2022-10-18T13:36:23.269Z,0.52
2022-10-18T13:38:50.335Z,0.80
2022-10-18T13:41:18.584Z,0.90
2022-10-18T13:44:04.195Z,0.73
2022-10-18T13:49:28.737Z,0.50
2022-10-18T13:52:03.137Z,0.60
2022-10-18T13:54:44.881Z,1.10
2022-10-18T13:57:26.156Z,0.85
2022-10-18T14:00:17.405Z,0.80
2022-10-18T14:03:06.402Z,0.70
2022-10-18T14:05:51.165Z,0.63
2022-10-18T14:08:24.294Z,0.70
2022-10-18T14:11:04.194Z,0.68
2022-10-18T14:13:43.816Z,0.57
2022-10-18T14:16:29.996Z,0.52
2022-10-18T14:19:14.176Z,0.60
2022-10-18T14:21:48.708Z,0.55
2022-10-18T14:24:23.032Z,0.60
2022-10-18T14:27:12.705Z,0.88
2022-10-18T14:29:40.616Z,0.60
2022-10-18T14:32:21.775Z,0.70
2022-10-18T14:34:48.625Z,0.65
2022-10-18T14:37:24.664Z,0.70
2022-10-18T14:39:51.320Z,0.88
2022-10-18T14:42:25.807Z,0.60
2022-10-18T14:44:54.313Z,0.63
2022-10-18T14:47:28.250Z,0.80
2022-10-18T14:49:57.523Z,0.90
2022-10-18T14:52:35.081Z,0.70
2022-10-18T14:55:02.391Z,1.20
2022-10-18T14:57:36.106Z,0.90
2022-10-18T15:00:09.059Z,0.80
2022-10-18T15:02:38.243Z,1.08
2022-10-18T15:05:16.306Z,1.00
2022-10-18T15:07:43.951Z,1.00
2022-10-18T15:10:17.139Z,1.02
2022-10-18T15:13:08.299Z,0.90
2022-10-18T15:15:33.313Z,0.80
2022-10-18T15:18:01.416Z,1.10
2022-10-18T15:20:31.800Z,1.10
2022-10-18T15:23:28.053Z,0.90
2022-10-18T15:26:07.773Z,0.70
2022-10-18T15:28:49.956Z,0.80
2022-10-18T15:31:34.914Z,0.93
2022-10-18T15:34:18.153Z,0.77
2022-10-18T15:36:45.700Z,1.08
2022-10-18T15:39:19.949Z,1.10
2022-10-18T15:41:50.049Z,1.37
2022-10-18T15:44:21.393Z,2.10
2022-10-18T15:46:49.808Z,1.02
2022-10-18T15:49:25.682Z,0.88
2022-10-18T15:52:33.825Z,0.70
2022-10-18T15:55:29.370Z,1.00
2022-10-18T15:58:26.284Z,1.10
2022-10-18T16:00:58.540Z,1.20
2022-10-18T16:03:25.454Z,1.08
2022-10-18T16:06:06.869Z,1.20
2022-10-18T16:08:40.480Z,1.17
2022-10-18T16:11:12.772Z,1.35
2022-10-18T16:13:39.440Z,1.50
2022-10-18T16:16:06.625Z,1.45
2022-10-18T16:18:33.714Z,1.25
2022-10-18T16:21:01.867Z,1.35
2022-10-18T16:23:29.253Z,1.80
2022-10-18T16:25:55.882Z,1.60
2022-10-18T16:28:25.103Z,1.50
2022-10-18T16:31:01.189Z,1.42
2022-10-18T16:33:27.826Z,1.50
2022-10-18T16:35:54.665Z,1.70
2022-10-18T16:38:35.194Z,1.60
2022-10-18T16:41:03.801Z,1.83
2022-10-18T16:43:31.192Z,2.17
2022-10-18T16:45:57.753Z,5.70
2022-10-18T16:48:25.345Z,5.20
2022-10-18T16:50:54.444Z,3.95
2022-10-18T16:53:23.734Z,3.80
2022-10-18T16:56:01.356Z,2.92
2022-10-18T16:58:29.549Z,2.42
2022-10-18T17:00:57.311Z,2.55
2022-10-18T17:03:24.443Z,2.08
2022-10-18T17:05:51.425Z,2.30
2022-10-18T17:08:26.280Z,2.30
2022-10-18T17:10:55.880Z,2.28
2022-10-18T17:13:23.875Z,2.30
2022-10-18T17:15:51.489Z,2.40
2022-10-18T17:18:22.106Z,3.30
2022-10-18T17:20:50.252Z,3.92
2022-10-18T17:23:16.837Z,4.53
2022-10-18T17:25:57.412Z,4.28
2022-10-18T17:28:31.267Z,3.90
2022-10-18T17:30:57.872Z,3.60
2022-10-18T17:33:24.647Z,3.53
2022-10-18T17:35:51.228Z,3.85
2022-10-18T17:38:17.849Z,3.97
2022-10-18T17:40:45.418Z,3.30
2022-10-18T17:43:13.552Z,3.38
2022-10-18T17:45:53.609Z,3.47
2022-10-18T17:48:20.347Z,3.55
2022-10-18T17:50:47.128Z,2.80
2022-10-18T17:53:13.916Z,2.85
2022-10-18T17:55:40.652Z,2.80
2022-10-18T17:58:07.492Z,3.33
2022-10-18T18:00:34.234Z,2.83
2022-10-18T18:03:01.062Z,3.05
2022-10-18T18:05:32.874Z,2.42
2022-10-18T18:08:03.728Z,2.83
2022-10-18T18:10:33.006Z,2.75
2022-10-18T18:13:00.015Z,3.47
2022-10-18T18:15:26.869Z,3.58
2022-10-18T18:17:57.038Z,3.80
2022-10-18T18:20:24.764Z,3.70
2022-10-18T18:22:51.741Z,3.20
2022-10-18T18:25:18.670Z,2.78
2022-10-18T18:27:45.357Z,3.88
2022-10-18T18:30:12.291Z,3.30
2022-10-18T18:32:38.877Z,3.03
2022-10-18T18:35:05.922Z,3.28
2022-10-18T18:37:32.684Z,3.72
2022-10-18T18:39:59.319Z,3.38
2022-10-18T18:42:25.901Z,3.15
2022-10-18T18:44:52.647Z,3.55
2022-10-18T18:47:21.486Z,3.53
2022-10-18T18:49:48.897Z,6.10
2022-10-18T18:52:15.594Z,7.22
2022-10-18T18:54:42.261Z,4.97
2022-10-18T18:57:08.840Z,4.80
2022-10-18T18:59:35.472Z,4.75
2022-10-18T19:02:02.080Z,4.55
2022-10-18T19:04:29.040Z,4.93
2022-10-18T19:06:55.769Z,4.32
2022-10-18T19:09:22.863Z,4.07
2022-10-18T19:11:52.765Z,4.10
2022-10-18T19:16:49.062Z,3.88
2022-10-18T19:19:18.587Z,3.80
2022-10-18T19:21:47.971Z,4.38
2022-10-18T19:24:15.557Z,4.72
2022-10-18T19:26:52.514Z,4.55
2022-10-18T19:29:25.992Z,4.25
2022-10-18T19:31:54.863Z,3.80
2022-10-18T19:34:23.604Z,4.88
2022-10-18T19:36:50.902Z,3.97
2022-10-18T19:39:23.203Z,4.72
2022-10-18T19:41:52.557Z,4.13
2022-10-18T19:44:20.836Z,3.80
2022-10-18T19:46:49.064Z,3.67
2022-10-18T19:49:16.581Z,4.35
2022-10-18T19:51:43.377Z,4.28
2022-10-18T19:54:12.080Z,4.60
2022-10-18T19:56:39.157Z,4.60
2022-10-18T19:59:05.791Z,4.32
2022-10-18T20:01:32.381Z,4.72
2022-10-18T20:03:59.489Z,4.13
2022-10-18T20:06:26.489Z,4.32
2022-10-18T20:08:53.270Z,4.57
2022-10-18T20:11:25.963Z,4.35
2022-10-18T20:13:52.906Z,4.00
2022-10-18T20:16:27.688Z,4.63
2022-10-18T20:19:03.123Z,4.15
2022-10-18T20:21:32.901Z,3.72
2022-10-18T20:23:59.473Z,3.30
2022-10-18T20:26:26.210Z,3.38
2022-10-18T20:28:58.720Z,3.05
2022-10-18T20:31:38.098Z,2.60
2022-10-18T20:34:07.673Z,2.92
2022-10-18T20:36:35.283Z,2.70
2022-10-18T20:39:02.681Z,3.10
2022-10-18T20:41:30.479Z,2.90
2022-10-18T20:44:03.127Z,2.58
2022-10-18T20:46:31.781Z,3.20
2022-10-18T20:48:58.688Z,2.63
2022-10-18T20:51:25.456Z,2.80
2022-10-18T20:53:53.199Z,2.67
2022-10-18T20:56:22.336Z,3.53
2022-10-18T20:58:51.234Z,3.00
2022-10-18T21:01:23.645Z,3.05
2022-10-18T21:03:52.056Z,3.90
2022-10-18T21:06:27.937Z,3.80
2022-10-18T21:09:03.296Z,2.83
2022-10-18T21:11:31.515Z,2.80
2022-10-18T21:14:02.548Z,3.20
2022-10-18T21:16:33.465Z,3.70
2022-10-18T21:19:08.739Z,4.10
2022-10-18T21:21:35.329Z,5.25
2022-10-18T21:24:05.358Z,4.32
2022-10-18T21:26:34.443Z,3.65
2022-10-18T21:29:01.111Z,4.38
2022-10-18T21:31:30.648Z,4.88
2022-10-18T21:34:03.081Z,6.18
2022-10-18T21:36:35.898Z,7.47
2022-10-18T21:39:04.893Z,9.02
2022-10-18T21:41:32.303Z,9.38
2022-10-18T21:43:58.977Z,8.77
2022-10-18T21:46:26.972Z,9.20
2022-10-18T21:48:56.236Z,9.43
2022-10-18T21:51:25.670Z,8.52
2022-10-18T21:53:55.068Z,7.72
2022-10-18T21:56:24.246Z,7.95
2022-10-18T21:58:50.917Z,8.35
2022-10-18T22:01:24.125Z,7.47
2022-10-18T22:03:52.531Z,8.57
2022-10-18T22:06:20.059Z,9.57
2022-10-18T22:08:55.496Z,9.98
2022-10-18T22:11:25.569Z,10.35
2022-10-18T22:13:53.210Z,11.05
2022-10-18T22:16:20.025Z,10.75
2022-10-18T22:18:48.523Z,12.20
2022-10-18T22:21:17.059Z,11.90
2022-10-18T22:23:50.766Z,12.75
2022-10-18T22:26:26.913Z,12.15
2022-10-18T22:28:59.196Z,13.93
2022-10-18T22:31:29.365Z,12.27
2022-10-18T22:33:58.264Z,12.48
2022-10-18T22:36:25.871Z,13.77
2022-10-18T22:38:52.705Z,12.32
2022-10-18T22:41:19.800Z,11.40
2022-10-18T22:43:47.643Z,12.80
2022-10-18T22:46:15.159Z,12.63
2022-10-18T22:48:42.598Z,13.40
2022-10-18T22:51:09.961Z,13.05
2022-10-18T22:53:37.758Z,11.77
2022-10-18T22:56:05.288Z,11.20
2022-10-18T22:58:32.030Z,11.15
2022-10-18T23:01:10.670Z,11.50
2022-10-18T23:03:38.668Z,10.85
2022-10-18T23:06:16.969Z,12.13
2022-10-18T23:08:43.626Z,11.65
2022-10-18T23:11:10.167Z,11.27
2022-10-18T23:13:39.454Z,11.55
2022-10-18T23:16:06.711Z,13.35
2022-10-18T23:18:33.474Z,12.93
2022-10-18T23:21:02.491Z,13.02
2022-10-18T23:23:31.342Z,14.90
2022-10-18T23:25:57.907Z,13.07
2022-10-18T23:28:24.454Z,12.85
2022-10-18T23:30:50.980Z,13.20
2022-10-18T23:33:17.647Z,14.95
2022-10-18T23:35:44.243Z,13.73
2022-10-18T23:38:10.785Z,13.68
2022-10-18T23:40:37.328Z,12.75
2022-10-18T23:43:03.957Z,12.85
2022-10-18T23:45:30.551Z,13.45
2022-10-18T23:47:57.075Z,14.43
2022-10-18T23:50:23.597Z,14.38
2022-10-18T23:52:50.148Z,14.73
2022-10-18T23:55:16.759Z,14.43
2022-10-18T23:57:43.327Z,14.82
